Time;durP1;ratioP1;P1;durP2;ratioP2;P2;SDS_P1;SDS_P2;PMS_P1;PMS_P2;Temp;Humidity;BMP_temperature;BMP_pressure;BME280_temperature;BME280_humidity;BME280_pressure;Samples;Min_cycle;Max_cycle;Signal;HPM_P1;HPM_P2
2022/04/30 00:01:27;;;;;;;6.35;2.95;;;7.00;99.90;;;;;;4934194;28;20046;-80
2022/04/30 00:03:54;;;;;;;5.28;1.73;;;7.10;99.90;;;;;;4933047;28;20048;-80
2022/04/30 00:06:43;;;;;;;8.25;2.35;;;7.00;99.90;;;;;;4912441;28;20039;-80
2022/04/30 00:09:14;;;;;;;4.22;2.20;;;7.00;99.90;;;;;;4870902;29;20054;-79
2022/04/30 00:11:45;;;;;;;5.18;2.30;;;7.00;99.90;;;;;;4898475;28;20043;-80
2022/04/30 00:14:13;;;;;;;3.87;2.07;;;6.90;99.90;;;;;;4933900;28;20042;-80
2022/04/30 00:16:52;;;;;;;4.43;1.95;;;6.90;99.90;;;;;;4950327;28;20031;-79
2022/04/30 00:19:22;;;;;;;8.15;2.55;;;6.90;99.90;;;;;;4948834;28;20046;-80
2022/04/30 00:21:51;;;;;;;3.70;1.58;;;6.80;99.90;;;;;;4912556;28;20050;-79
2022/04/30 00:24:26;;;;;;;5.15;1.95;;;6.80;99.90;;;;;;4945766;28;20673;-80
2022/04/30 00:26:56;;;;;;;3.85;1.90;;;6.80;99.90;;;;;;4931332;28;20035;-80
2022/04/30 00:29:24;;;;;;;5.32;1.90;;;6.70;99.90;;;;;;4914484;28;20050;-80
2022/04/30 00:32:23;;;;;;;3.45;1.67;;;6.70;99.90;;;;;;4934259;28;20039;-80
2022/04/30 00:35:19;;;;;;;3.88;1.83;;;6.70;99.90;;;;;;4942790;28;20546;-79
2022/04/30 00:37:46;;;;;;;4.43;1.55;;;6.60;99.90;;;;;;4924912;28;20048;-80
2022/04/30 00:40:17;;;;;;;5.57;2.25;;;6.60;99.90;;;;;;4948865;28;20035;-80
2022/04/30 00:42:46;;;;;;;4.05;1.77;;;6.60;99.90;;;;;;4949273;28;20035;-80
2022/04/30 00:45:20;;;;;;;4.30;2.30;;;6.50;99.90;;;;;;4920211;28;20031;-80
2022/04/30 00:47:51;;;;;;;6.53;2.40;;;6.50;99.90;;;;;;4898830;28;20043;-79
2022/04/30 00:50:27;;;;;;;7.30;2.55;;;6.40;99.90;;;;;;4932809;28;20047;-80
2022/04/30 00:53:01;;;;;;;4.07;2.20;;;6.40;99.90;;;;;;4916676;28;20044;-80
2022/04/30 00:55:35;;;;;;;8.43;2.67;;;6.40;99.90;;;;;;4932900;29;20039;-79
2022/04/30 00:58:07;;;;;;;4.22;2.58;;;6.40;99.90;;;;;;4903672;28;20035;-80
2022/04/30 01:00:38;;;;;;;4.97;1.83;;;6.40;99.90;;;;;;4942930;28;20042;-80
2022/04/30 01:03:13;;;;;;;4.80;1.97;;;6.30;99.90;;;;;;4930597;28;20027;-80
2022/04/30 01:06:10;;;;;;;5.03;2.35;;;6.40;99.90;;;;;;4918231;28;20035;-79
2022/04/30 01:08:45;;;;;;;4.32;2.25;;;6.30;99.90;;;;;;4928475;28;20483;-80
2022/04/30 01:11:17;;;;;;;8.90;3.35;;;6.30;99.90;;;;;;4918232;28;20116;-79
2022/04/30 01:13:45;;;;;;;6.82;3.00;;;6.30;99.90;;;;;;4928856;28;20035;-79
2022/04/30 01:16:13;;;;;;;6.20;3.95;;;6.20;99.90;;;;;;4916571;28;20510;-79
2022/04/30 01:18:42;;;;;;;4.20;2.40;;;6.20;99.90;;;;;;4930529;28;20036;-79
2022/04/30 01:21:13;;;;;;;7.88;3.05;;;6.20;99.90;;;;;;4900376;28;20506;-86
2022/04/30 01:23:44;;;;;;;9.05;3.40;;;6.10;99.90;;;;;;4904672;28;20039;-86
2022/04/30 01:26:14;;;;;;;5.75;3.05;;;6.20;99.90;;;;;;4923562;28;20047;-86
2022/04/30 01:28:43;;;;;;;8.48;3.33;;;6.10;99.90;;;;;;4914364;28;20043;-88
2022/04/30 01:40:03;;;;;;;8.23;3.38;;;6.00;99.90;;;;;;4955600;28;20475;-79
2022/04/30 01:42:47;;;;;;;5.82;3.72;;;5.90;99.90;;;;;;4934104;28;20046;-79
2022/04/30 01:45:20;;;;;;;5.57;3.07;;;5.90;99.90;;;;;;4916731;28;20039;-79
2022/04/30 01:47:59;;;;;;;7.45;3.65;;;5.90;99.90;;;;;;4914970;28;20041;-79
2022/04/30 01:50:38;;;;;;;8.20;3.70;;;5.90;99.90;;;;;;4895609;29;20039;-79
2022/04/30 01:53:16;;;;;;;6.18;3.35;;;5.90;99.90;;;;;;4932630;28;20027;-79
2022/04/30 01:56:00;;;;;;;7.13;3.35;;;5.80;99.90;;;;;;4914257;28;20056;-80
2022/04/30 01:58:35;;;;;;;8.57;3.45;;;5.80;99.90;;;;;;4916765;28;20031;-80
2022/04/30 02:01:33;;;;;;;7.00;3.58;;;5.80;99.90;;;;;;4912597;28;20043;-79
2022/04/30 02:04:05;;;;;;;6.83;2.87;;;5.80;99.90;;;;;;4927471;28;20043;-79
2022/04/30 02:06:41;;;;;;;7.70;3.42;;;5.70;99.90;;;;;;4946630;28;20027;-79
2022/04/30 02:09:08;;;;;;;5.30;3.55;;;5.70;99.90;;;;;;4916615;28;20065;-79
2022/04/30 02:11:50;;;;;;;8.48;3.17;;;5.70;99.90;;;;;;4927223;28;20035;-79
2022/04/30 02:14:35;;;;;;;;;;;5.70;99.90;;;;;;4915311;28;20047;-79
2022/04/30 02:17:08;;;;;;;6.07;2.97;;;5.60;99.90;;;;;;4943747;28;19930;-79
2022/04/30 02:22:38;;;;;;;6.53;3.35;;;5.60;99.90;;;;;;4934223;28;20051;-79
2022/04/30 02:25:20;;;;;;;5.37;3.30;;;5.50;99.90;;;;;;4928428;28;20042;-79
2022/04/30 02:27:58;;;;;;;8.13;3.78;;;5.40;99.90;;;;;;4946037;28;20042;-79
2022/04/30 02:30:29;;;;;;;6.73;3.63;;;5.50;99.90;;;;;;4913990;28;20061;-79
2022/04/30 02:33:10;;;;;;;8.23;4.38;;;5.40;99.90;;;;;;4929049;29;20055;-79
2022/04/30 02:35:44;;;;;;;6.40;3.72;;;5.40;99.90;;;;;;4912626;29;20048;-79
2022/04/30 02:38:19;;;;;;;7.82;4.07;;;5.50;99.90;;;;;;4936839;28;20046;-79
2022/04/30 02:40:48;;;;;;;10.83;4.60;;;5.40;99.90;;;;;;4918196;29;20092;-79
2022/04/30 02:43:26;;;;;;;8.13;4.47;;;5.40;99.90;;;;;;4910375;29;20041;-80
2022/04/30 02:46:25;;;;;;;7.13;3.93;;;5.40;99.90;;;;;;4931606;28;20035;-80
2022/04/30 02:48:52;;;;;;;7.93;2.97;;;5.40;99.90;;;;;;4921712;29;20400;-80
2022/04/30 02:51:37;;;;;;;8.53;4.20;;;5.40;99.90;;;;;;4907263;29;20039;-80
2022/04/30 02:54:05;;;;;;;7.50;4.95;;;5.40;99.90;;;;;;4911087;29;20048;-80
2022/04/30 02:56:40;;;;;;;6.17;3.47;;;5.30;99.90;;;;;;4894450;29;20035;-80
2022/04/30 03:00:11;;;;;;;9.63;5.07;;;5.30;99.90;;;;;;4927109;29;20051;-80
2022/04/30 03:02:26;;;;;;;9.47;4.20;;;5.30;99.90;;;;;;4897708;29;20052;-87
2022/04/30 03:05:06;;;;;;;7.80;4.40;;;5.30;99.90;;;;;;4918260;29;20047;-86
2022/04/30 03:07:48;;;;;;;7.97;4.25;;;5.20;99.90;;;;;;4946843;28;20046;-87
2022/04/30 03:10:28;;;;;;;7.95;4.15;;;5.20;99.90;;;;;;4889309;28;20043;-87
2022/04/30 03:12:56;;;;;;;8.20;4.80;;;5.20;99.90;;;;;;4931248;28;20371;-86
2022/04/30 03:15:30;;;;;;;9.90;4.40;;;5.20;99.90;;;;;;4900968;29;20391;-87
2022/04/30 03:23:39;;;;;;;7.63;4.90;;;5.10;99.90;;;;;;4913569;28;20051;-87
2022/04/30 03:26:08;;;;;;;8.23;4.83;;;5.10;99.90;;;;;;4875726;28;22823;-86
2022/04/30 03:28:37;;;;;;;5.20;3.70;;;5.10;99.90;;;;;;4898541;28;20035;-86
2022/04/30 03:31:05;;;;;;;6.50;4.37;;;5.10;99.90;;;;;;4947375;28;20031;-86
2022/04/30 03:33:32;;;;;;;7.10;4.57;;;5.00;99.90;;;;;;4917570;28;20031;-87
2022/04/30 03:35:59;;;;;;;6.03;4.60;;;5.00;99.90;;;;;;4915536;28;20391;-87
2022/04/30 03:38:26;;;;;;;6.80;3.73;;;5.00;99.90;;;;;;4916919;28;20031;-85
2022/04/30 03:40:52;;;;;;;7.77;4.37;;;5.00;99.90;;;;;;4910450;28;20038;-86
2022/04/30 03:43:21;;;;;;;8.70;4.87;;;5.00;99.90;;;;;;4904087;28;20055;-86
2022/04/30 03:45:50;;;;;;;8.60;4.90;;;5.00;99.90;;;;;;4944268;28;20044;-86
2022/04/30 03:48:17;;;;;;;13.30;5.68;;;4.90;99.90;;;;;;4926034;28;20503;-87
2022/04/30 03:50:43;;;;;;;7.77;4.40;;;4.90;99.90;;;;;;4915685;28;20030;-87
2022/04/30 03:53:10;;;;;;;9.30;4.67;;;4.90;99.90;;;;;;4920129;28;20039;-86
2022/04/30 03:55:37;;;;;;;6.37;3.73;;;4.90;99.90;;;;;;4901410;29;20055;-85
2022/04/30 03:58:04;;;;;;;7.73;4.50;;;4.90;99.90;;;;;;4935526;28;20502;-86
2022/04/30 04:00:31;;;;;;;8.07;4.10;;;4.90;99.90;;;;;;4914272;28;20511;-90
2022/04/30 04:02:59;;;;;;;8.80;4.87;;;4.80;99.90;;;;;;4900786;28;20054;-86
2022/04/30 04:05:26;;;;;;;9.73;4.20;;;4.80;99.90;;;;;;4899534;28;20039;-86
2022/04/30 04:07:54;;;;;;;9.10;4.60;;;4.80;99.90;;;;;;4917152;28;20027;-87
2022/04/30 04:10:20;;;;;;;6.60;3.67;;;4.70;99.90;;;;;;4900735;28;20051;-86
2022/04/30 04:12:46;;;;;;;8.40;3.93;;;4.70;99.90;;;;;;4902112;29;20089;-86
2022/04/30 04:18:00;;;;;;;8.63;4.68;;;4.70;99.90;;;;;;4916193;28;20513;-79
2022/04/30 04:21:16;;;;;;;11.17;5.13;;;4.70;99.90;;;;;;4916739;28;20394;-79
2022/04/30 04:26:45;;;;;;;7.63;3.90;;;4.70;99.90;;;;;;4929963;28;20043;-86
2022/04/30 04:29:19;;;;;;;7.87;4.20;;;4.70;99.90;;;;;;4921254;28;20055;-86
2022/04/30 04:31:58;;;;;;;6.95;4.32;;;4.60;99.90;;;;;;4901586;28;20035;-86
2022/04/30 04:34:28;;;;;;;8.27;5.27;;;4.60;99.90;;;;;;4932632;28;20035;-85
2022/04/30 04:36:56;;;;;;;6.80;4.63;;;4.70;99.90;;;;;;4933247;28;20223;-84
2022/04/30 04:39:22;;;;;;;10.30;4.70;;;4.60;99.90;;;;;;4905848;28;20039;-87
2022/04/30 04:41:49;;;;;;;6.77;3.73;;;4.60;99.90;;;;;;4924996;28;20042;-88
2022/04/30 04:44:30;;;;;;;6.10;4.27;;;4.60;99.90;;;;;;4909974;29;20035;-87
2022/04/30 04:46:57;;;;;;;8.10;4.10;;;4.60;99.90;;;;;;4914218;28;20051;-88
2022/04/30 04:49:47;;;;;;;9.03;5.23;;;4.70;99.90;;;;;;4937931;28;20050;-86
2022/04/30 04:52:16;;;;;;;11.27;5.47;;;4.70;99.90;;;;;;4929945;28;20043;-87
2022/04/30 04:54:44;;;;;;;8.70;4.87;;;4.70;99.90;;;;;;4943047;28;20058;-87
2022/04/30 04:57:11;;;;;;;8.90;5.23;;;4.80;99.90;;;;;;4925661;29;20054;-80
2022/04/30 04:59:54;;;;;;;8.13;3.95;;;4.90;99.90;;;;;;4914029;29;20043;-79
2022/04/30 05:02:21;;;;;;;9.23;4.73;;;5.00;99.90;;;;;;4901472;29;20039;-79
2022/04/30 05:05:00;;;;;;;6.53;4.13;;;5.20;99.90;;;;;;4905614;29;20035;-79
2022/04/30 05:07:34;;;;;;;6.93;3.95;;;5.30;99.90;;;;;;4916740;29;20051;-79
2022/04/30 05:10:09;;;;;;;8.10;4.30;;;5.40;99.90;;;;;;4932690;29;20032;-80
2022/04/30 05:12:47;;;;;;;6.93;4.00;;;5.40;99.90;;;;;;4932317;29;20035;-80
2022/04/30 05:15:14;;;;;;;5.93;4.72;;;5.40;99.90;;;;;;4929541;29;20043;-80
2022/04/30 05:17:43;;;;;;;9.53;4.93;;;5.50;99.90;;;;;;4888773;29;20033;-79
2022/04/30 05:20:14;;;;;;;7.73;4.80;;;5.50;99.90;;;;;;4897233;29;20047;-80
2022/04/30 05:22:49;;;;;;;9.55;4.30;;;5.60;99.90;;;;;;4911285;29;20436;-81
2022/04/30 05:25:25;;;;;;;8.25;4.75;;;5.70;99.90;;;;;;4886829;29;20116;-79
2022/04/30 05:27:59;;;;;;;10.43;5.07;;;5.80;99.90;;;;;;4907576;29;20464;-82
2022/04/30 05:30:29;;;;;;;8.85;4.10;;;5.90;99.90;;;;;;4927752;29;20034;-80
2022/04/30 05:33:11;;;;;;;8.57;4.60;;;6.00;99.90;;;;;;4914614;29;20052;-78
2022/04/30 05:35:59;;;;;;;5.65;3.58;;;6.20;99.90;;;;;;4923406;29;20035;-79
2022/04/30 05:38:31;;;;;;;7.80;4.28;;;6.30;99.90;;;;;;4916428;29;20475;-78
2022/04/30 05:41:07;;;;;;;9.43;6.87;;;6.40;99.90;;;;;;4910303;29;20441;-79
2022/04/30 05:43:33;;;;;;;11.43;7.65;;;6.50;99.90;;;;;;4898122;29;20069;-78
2022/04/30 05:46:02;;;;;;;15.15;6.90;;;6.60;99.90;;;;;;4915629;29;20046;-78
2022/04/30 05:48:34;;;;;;;8.43;4.65;;;6.80;99.90;;;;;;4900716;29;20027;-79
2022/04/30 05:51:10;;;;;;;13.05;5.80;;;6.80;99.90;;;;;;4895793;29;20028;-78
2022/04/30 05:53:51;;;;;;;6.95;4.75;;;6.90;99.90;;;;;;4919021;29;20058;-78
2022/04/30 05:56:19;;;;;;;11.32;5.40;;;7.00;99.90;;;;;;4912568;29;20048;-79
2022/04/30 05:58:55;;;;;;;7.22;4.32;;;7.10;99.90;;;;;;4897063;29;20044;-80
2022/04/30 06:01:29;;;;;;;6.45;4.40;;;7.30;99.90;;;;;;4907499;29;20039;-86
2022/04/30 06:03:58;;;;;;;7.95;4.45;;;7.40;99.90;;;;;;4899044;29;20044;-85
2022/04/30 06:06:26;;;;;;;10.07;5.35;;;7.50;99.90;;;;;;4899976;29;20031;-85
2022/04/30 06:08:52;;;;;;;8.15;3.90;;;7.70;99.90;;;;;;4925858;29;20028;-78
2022/04/30 06:11:22;;;;;;;7.40;4.55;;;7.80;99.90;;;;;;4923839;29;20035;-79
2022/04/30 06:13:56;;;;;;;8.00;5.07;;;8.00;99.90;;;;;;4898239;29;20039;-80
2022/04/30 06:16:28;;;;;;;7.13;4.25;;;8.20;99.90;;;;;;4926684;29;20028;-78
2022/04/30 06:18:57;;;;;;;11.43;6.50;;;8.30;99.90;;;;;;4912562;29;20043;-79
2022/04/30 06:21:31;;;;;;;12.30;6.13;;;8.50;99.90;;;;;;4911331;29;20048;-78
2022/04/30 06:23:58;;;;;;;8.88;6.20;;;8.70;99.90;;;;;;4899061;29;20506;-78
2022/04/30 06:26:40;;;;;;;8.00;4.07;;;8.90;99.90;;;;;;4908176;29;20039;-80
2022/04/30 06:29:10;;;;;;;9.80;3.92;;;9.00;99.90;;;;;;4928833;29;20043;-80
2022/04/30 06:31:38;;;;;;;6.68;2.88;;;9.30;99.90;;;;;;4923909;29;20042;-78
2022/04/30 06:34:13;;;;;;;5.88;3.53;;;9.40;99.90;;;;;;4925407;29;20403;-78
2022/04/30 06:36:41;;;;;;;9.35;3.08;;;9.60;99.90;;;;;;4928200;29;20038;-78
2022/04/30 06:39:09;;;;;;;7.22;2.63;;;9.70;99.90;;;;;;4911584;29;20377;-79
2022/04/30 06:41:42;;;;;;;5.05;2.95;;;9.80;99.90;;;;;;4904333;29;20035;-79
2022/04/30 06:44:15;;;;;;;6.55;2.67;;;10.00;99.90;;;;;;4913952;29;20059;-84
2022/04/30 06:46:43;;;;;;;4.82;2.50;;;10.30;99.90;;;;;;4929642;29;20028;-85
2022/04/30 06:49:10;;;;;;;6.20;2.30;;;10.60;99.90;;;;;;4910127;29;20376;-85
2022/04/30 06:51:37;;;;;;;6.38;2.33;;;10.80;99.90;;;;;;4879760;29;20040;-85
2022/04/30 06:57:08;;;;;;;6.28;2.40;;;11.00;99.90;;;;;;4942671;28;20415;-85
2022/04/30 06:59:41;;;;;;;5.35;2.08;;;11.10;99.90;;;;;;4925439;28;20039;-84
2022/04/30 07:02:21;;;;;;;6.10;2.00;;;11.10;99.90;;;;;;4916168;28;20043;-79
2022/04/30 07:04:53;;;;;;;7.78;3.53;;;11.20;99.90;;;;;;4918408;28;20333;-79
2022/04/30 07:07:22;;;;;;;10.95;4.18;;;11.30;99.90;;;;;;4949791;28;20497;-78
2022/04/30 07:09:50;;;;;;;4.65;2.47;;;11.30;99.90;;;;;;4930118;28;20523;-77
2022/04/30 07:12:47;;;;;;;4.57;2.30;;;11.40;99.90;;;;;;4919142;28;20035;-78
2022/04/30 07:15:23;;;;;;;5.38;2.20;;;11.50;99.90;;;;;;4936393;28;20035;-79
2022/04/30 07:17:57;;;;;;;5.57;1.52;;;11.80;99.90;;;;;;4918561;28;20050;-79
2022/04/30 07:20:35;;;;;;;6.75;1.83;;;12.10;99.90;;;;;;4929865;29;20040;-83
2022/04/30 07:23:02;;;;;;;3.58;1.40;;;12.30;99.90;;;;;;4918926;29;20051;-84
2022/04/30 07:25:34;;;;;;;3.42;1.13;;;12.50;99.90;;;;;;4917709;29;20031;-85
2022/04/30 07:28:02;;;;;;;2.63;1.10;;;12.60;99.90;;;;;;4932406;28;20046;-83
2022/04/30 07:30:51;;;;;;;3.35;0.90;;;12.60;99.90;;;;;;4897673;28;20134;-84
2022/04/30 07:33:18;;;;;;;2.95;1.48;;;12.80;99.90;;;;;;4940130;29;20054;-83
2022/04/30 07:35:51;;;;;;;4.72;1.67;;;12.90;99.90;;;;;;4916186;29;20046;-85
2022/04/30 07:38:18;;;;;;;;;;;13.00;99.90;;;;;;4921219;28;20043;-83
2022/04/30 07:40:49;;;;;;;4.55;1.85;;;13.10;99.90;;;;;;4932887;28;19910;-82
2022/04/30 07:43:18;;;;;;;3.28;1.60;;;13.30;99.90;;;;;;4932362;28;20051;-83
2022/04/30 07:45:49;;;;;;;4.07;1.52;;;13.50;99.90;;;;;;4932537;28;20491;-83
2022/04/30 07:48:27;;;;;;;3.78;2.00;;;13.70;99.90;;;;;;4917159;28;20036;-79
2022/04/30 07:50:57;;;;;;;3.80;1.45;;;13.80;99.90;;;;;;4927974;28;20391;-79
2022/04/30 07:53:28;;;;;;;5.15;1.70;;;14.10;99.70;;;;;;4944888;28;20110;-79
2022/04/30 07:55:58;;;;;;;2.88;1.42;;;14.30;98.60;;;;;;4931882;28;20518;-78
2022/04/30 07:58:25;;;;;;;4.25;1.08;;;14.60;98.10;;;;;;4913862;29;20047;-78
2022/04/30 08:00:51;;;;;;;2.67;1.00;;;14.90;97.40;;;;;;4926657;28;20515;-78
2022/04/30 08:03:40;;;;;;;5.90;3.30;;;14.90;97.10;;;;;;4902933;29;20062;-77
2022/04/30 08:06:17;;;;;;;6.07;2.75;;;14.70;96.00;;;;;;4947597;28;20032;-78
2022/04/30 08:08:43;;;;;;;3.75;1.60;;;14.50;96.30;;;;;;4915098;28;20047;-77
2022/04/30 08:11:13;;;;;;;4.95;1.50;;;14.30;96.70;;;;;;4911491;29;20023;-78
2022/04/30 08:13:40;;;;;;;3.90;2.03;;;14.00;97.10;;;;;;4945105;28;20039;-78
2022/04/30 08:16:28;;;;;;;5.50;2.25;;;13.80;97.50;;;;;;4931011;28;20047;-78
2022/04/30 08:19:04;;;;;;;8.30;3.88;;;13.70;98.00;;;;;;4917399;29;20054;-81
2022/04/30 08:21:32;;;;;;;7.25;4.13;;;13.50;98.30;;;;;;4931371;28;20042;-77
2022/04/30 08:24:02;;;;;;;8.02;4.07;;;13.50;98.60;;;;;;4930106;29;20039;-77
2022/04/30 08:26:40;;;;;;;7.70;3.88;;;13.40;98.60;;;;;;4946705;28;20042;-77
2022/04/30 08:29:07;;;;;;;4.85;3.40;;;13.40;98.60;;;;;;4931935;28;20027;-76
2022/04/30 08:31:35;;;;;;;9.55;3.28;;;13.30;98.60;;;;;;4928930;28;20031;-77
2022/04/30 08:34:01;;;;;;;3.55;2.40;;;13.30;98.80;;;;;;4920989;28;20043;-78
2022/04/30 08:36:29;;;;;;;6.60;2.97;;;13.30;98.90;;;;;;4918844;29;20039;-77
2022/04/30 08:38:56;;;;;;;4.65;3.35;;;13.40;98.80;;;;;;4894396;28;20507;-77
2022/04/30 08:41:23;;;;;;;4.35;2.97;;;13.50;98.50;;;;;;4931003;28;20394;-78
2022/04/30 08:43:54;;;;;;;6.88;2.85;;;13.50;98.60;;;;;;4929125;28;20035;-77
2022/04/30 08:46:22;;;;;;;3.88;1.95;;;13.50;98.50;;;;;;4932537;28;20035;-80
2022/04/30 08:48:51;;;;;;;5.00;2.40;;;13.60;98.40;;;;;;4948303;28;20039;-79
2022/04/30 08:51:18;;;;;;;2.95;2.22;;;13.60;98.40;;;;;;4932025;28;20040;-81
2022/04/30 08:53:49;;;;;;;3.67;1.67;;;13.70;98.30;;;;;;4922028;28;20035;-79
2022/04/30 08:56:15;;;;;;;5.45;2.20;;;13.80;98.00;;;;;;4936026;28;20051;-76
2022/04/30 08:58:42;;;;;;;4.72;2.10;;;13.90;97.60;;;;;;4941653;28;20046;-77
2022/04/30 09:01:10;;;;;;;4.78;2.33;;;13.90;97.50;;;;;;4912446;28;20047;-78
2022/04/30 09:03:38;;;;;;;7.65;2.45;;;14.00;97.50;;;;;;4928346;29;20038;-78
2022/04/30 09:06:06;;;;;;;6.20;2.58;;;14.20;97.30;;;;;;4918194;28;20035;-78
2022/04/30 09:08:35;;;;;;;3.60;1.80;;;14.30;97.10;;;;;;4915452;28;20054;-78
2022/04/30 09:11:08;;;;;;;2.73;1.40;;;14.40;97.00;;;;;;4915171;28;20046;-78
2022/04/30 09:14:02;;;;;;;5.55;2.05;;;14.60;96.90;;;;;;4914202;28;20287;-78
2022/04/30 09:16:32;;;;;;;4.72;1.67;;;14.80;96.60;;;;;;4928045;28;20046;-78
2022/04/30 09:19:11;;;;;;;6.65;2.25;;;15.00;96.20;;;;;;4919445;28;20035;-78
2022/04/30 09:21:49;;;;;;;2.95;1.42;;;15.00;95.70;;;;;;4909082;28;20051;-78
2022/04/30 09:24:16;;;;;;;4.47;1.80;;;15.20;95.50;;;;;;4916404;28;20034;-78
2022/04/30 09:26:43;;;;;;;4.88;0.85;;;15.20;95.20;;;;;;4927411;28;20497;-78
2022/04/30 09:29:40;;;;;;;5.53;1.80;;;15.30;95.10;;;;;;4928497;28;20031;-78
2022/04/30 09:32:09;;;;;;;5.63;2.58;;;15.30;94.60;;;;;;4941332;28;20518;-78
2022/04/30 09:37:43;;;;;;;2.90;1.33;;;15.60;93.60;;;;;;4942507;28;20038;-79
2022/04/30 09:40:14;;;;;;;2.40;1.20;;;16.00;92.90;;;;;;4937814;28;20300;-78
2022/04/30 09:42:48;;;;;;;9.75;2.60;;;16.10;92.50;;;;;;4924730;28;20035;-78
2022/04/30 09:45:49;;;;;;;4.10;2.13;;;16.00;91.90;;;;;;4942405;28;20054;-78
2022/04/30 09:54:13;;;;;;;3.72;1.70;;;15.40;92.20;;;;;;4898596;29;20055;-78
2022/04/30 09:56:45;;;;;;;3.65;1.85;;;15.30;92.20;;;;;;4863074;29;20051;-78
2022/04/30 09:59:13;;;;;;;3.67;1.90;;;15.40;92.10;;;;;;4893605;28;20051;-83
2022/04/30 10:01:42;;;;;;;4.03;1.40;;;15.40;91.90;;;;;;4897126;29;20035;-83
2022/04/30 10:04:11;;;;;;;2.05;1.30;;;15.60;91.80;;;;;;4944300;28;20063;-83
2022/04/30 10:06:44;;;;;;;3.85;1.50;;;15.60;91.50;;;;;;4945058;28;20020;-83
2022/04/30 10:09:14;;;;;;;3.30;1.80;;;15.50;91.30;;;;;;4912761;28;20036;-83
2022/04/30 10:12:01;;;;;;;7.40;2.30;;;15.20;91.20;;;;;;4906376;28;20043;-83
2022/04/30 10:14:51;;;;;;;7.05;2.63;;;14.90;91.40;;;;;;4928743;28;20027;-83
2022/04/30 10:17:25;;;;;;;5.90;2.28;;;14.60;91.70;;;;;;4944131;28;20031;-78
2022/04/30 10:20:05;;;;;;;3.53;2.38;;;14.30;91.90;;;;;;4927123;29;20042;-78
2022/04/30 10:22:31;;;;;;;5.32;2.03;;;14.10;92.20;;;;;;4913646;28;20023;-78
2022/04/30 10:25:02;;;;;;;4.22;1.88;;;13.90;92.50;;;;;;4909450;28;20054;-78
2022/04/30 10:27:47;;;;;;;4.40;2.47;;;13.80;92.80;;;;;;4911109;28;20379;-78
2022/04/30 10:30:34;;;;;;;4.82;2.30;;;13.70;92.80;;;;;;4922248;28;20030;-78
2022/04/30 10:33:06;;;;;;;6.47;3.22;;;13.60;93.00;;;;;;4913881;29;20058;-77
2022/04/30 10:35:43;;;;;;;4.35;2.45;;;13.50;93.20;;;;;;4931846;28;20031;-78
2022/04/30 10:38:18;;;;;;;4.18;2.97;;;13.40;93.40;;;;;;4933507;28;20035;-78
2022/04/30 10:40:56;;;;;;;16.10;8.50;;;13.40;93.50;;;;;;4947634;28;20038;-80
2022/04/30 10:43:32;;;;;;;9.70;6.30;;;13.40;93.70;;;;;;4934078;28;20144;-76
2022/04/30 10:46:00;;;;;;;8.50;5.22;;;13.40;93.80;;;;;;4900274;28;20038;-78
2022/04/30 10:48:28;;;;;;;6.07;3.28;;;13.40;93.90;;;;;;4930025;29;20047;-80
2022/04/30 10:51:11;;;;;;;6.93;2.72;;;13.40;94.00;;;;;;4932308;29;20031;-77
2022/04/30 10:53:46;;;;;;;7.55;4.30;;;13.40;94.00;;;;;;4930939;28;20031;-77
2022/04/30 10:56:19;;;;;;;6.75;4.13;;;13.40;94.00;;;;;;4898792;28;20051;-81
2022/04/30 10:58:51;;;;;;;7.72;3.67;;;13.40;93.90;;;;;;4948431;28;20023;-78
2022/04/30 11:01:23;;;;;;;10.57;6.03;;;13.50;93.90;;;;;;4917131;29;20038;-78
2022/04/30 11:03:51;;;;;;;9.07;6.20;;;13.50;93.90;;;;;;4917642;29;20043;-77
2022/04/30 11:06:29;;;;;;;8.65;5.53;;;13.50;93.90;;;;;;4931523;29;20028;-77
2022/04/30 11:09:07;;;;;;;12.38;6.68;;;13.60;93.90;;;;;;4946605;28;20032;-78
2022/04/30 11:11:38;;;;;;;24.50;14.95;;;13.70;93.90;;;;;;4945674;28;20054;-79
2022/04/30 11:14:13;;;;;;;9.02;5.85;;;13.90;93.70;;;;;;4933413;29;20043;-76
2022/04/30 11:16:45;;;;;;;7.85;3.15;;;14.00;93.50;;;;;;4931978;28;20364;-82
2022/04/30 11:19:15;;;;;;;5.93;2.90;;;14.10;93.20;;;;;;4949235;28;20023;-76
2022/04/30 11:21:44;;;;;;;5.03;2.45;;;14.20;93.20;;;;;;4914529;29;20287;-77
2022/04/30 11:24:11;;;;;;;5.35;2.53;;;14.40;93.20;;;;;;4931048;29;20055;-77
2022/04/30 11:26:44;;;;;;;4.50;2.92;;;14.50;92.90;;;;;;4915561;28;20031;-77
2022/04/30 11:29:12;;;;;;;4.72;2.38;;;14.60;92.70;;;;;;4916163;28;20046;-77
2022/04/30 11:31:39;;;;;;;5.25;2.28;;;14.70;92.60;;;;;;4910316;28;20030;-77
2022/04/30 11:34:15;;;;;;;5.82;2.03;;;14.80;92.50;;;;;;4938735;28;20027;-77
2022/04/30 11:36:44;;;;;;;5.97;3.00;;;14.90;92.40;;;;;;4914606;28;20054;-78
2022/04/30 11:39:17;;;;;;;6.57;2.33;;;15.10;91.90;;;;;;4913459;28;20026;-77
2022/04/30 11:41:46;;;;;;;5.00;2.97;;;15.20;91.70;;;;;;4929375;28;21353;-77
2022/04/30 11:44:14;;;;;;;3.60;2.30;;;15.30;91.00;;;;;;4932662;28;20043;-77
2022/04/30 11:46:42;;;;;;;5.57;2.75;;;15.30;90.80;;;;;;4899667;28;20032;-80
2022/04/30 11:49:14;;;;;;;2.97;1.67;;;15.40;90.20;;;;;;4902714;28;20038;-77
2022/04/30 11:51:44;;;;;;;2.78;1.60;;;15.60;90.40;;;;;;4914243;28;20027;-77
2022/04/30 11:54:14;;;;;;;3.42;1.70;;;15.80;90.20;;;;;;4925273;28;20031;-78
2022/04/30 11:56:42;;;;;;;5.30;1.83;;;16.00;89.60;;;;;;4909425;28;20039;-78
2022/04/30 11:59:09;;;;;;;5.55;2.22;;;16.30;88.50;;;;;;4944344;28;20035;-78
2022/04/30 12:01:38;;;;;;;4.80;1.98;;;16.50;87.30;;;;;;4927991;28;20039;-77
2022/04/30 12:04:09;;;;;;;4.13;1.90;;;16.70;86.60;;;;;;4898051;29;20035;-78
2022/04/30 12:06:36;;;;;;;4.65;2.10;;;16.90;86.30;;;;;;4912366;28;20054;-78
2022/04/30 12:09:17;;;;;;;4.22;1.48;;;17.10;85.60;;;;;;4911537;28;20012;-77
2022/04/30 12:11:49;;;;;;;3.30;1.60;;;17.30;84.40;;;;;;4892480;29;20035;-78
2022/04/30 12:14:17;;;;;;;5.03;2.28;;;17.70;84.40;;;;;;4881653;28;20833;-78
2022/04/30 12:16:46;;;;;;;2.92;1.15;;;18.10;82.80;;;;;;4912435;28;20040;-78
2022/04/30 12:25:17;;;;;;;2.42;1.40;;;20.30;77.00;;;;;;4953045;28;20038;-78
2022/04/30 12:28:13;;;;;;;4.53;2.08;;;20.40;74.40;;;;;;4922258;29;20035;-79
2022/04/30 12:31:00;;;;;;;2.85;1.45;;;20.10;73.90;;;;;;4918961;28;20031;-78
2022/04/30 12:33:41;;;;;;;3.25;1.15;;;19.90;71.80;;;;;;4931419;28;20035;-76
2022/04/30 12:36:18;;;;;;;4.05;1.40;;;19.60;71.60;;;;;;4920387;28;20047;-77
2022/04/30 12:38:53;;;;;;;2.95;1.20;;;19.40;72.30;;;;;;4900204;28;20038;-78
2022/04/30 12:41:23;;;;;;;2.55;1.00;;;19.40;72.60;;;;;;4914699;29;20027;-78
2022/04/30 12:43:56;;;;;;;6.55;5.20;;;19.40;72.10;;;;;;4934614;28;20026;-84
2022/04/30 12:46:26;;;;;;;7.15;3.75;;;19.30;72.20;;;;;;4924323;28;20043;-84
2022/04/30 12:48:58;;;;;;;;;;;19.20;71.40;;;;;;4920657;28;20023;-85
2022/04/30 12:51:24;;;;;;;4.75;2.70;;;18.90;71.20;;;;;;4932016;28;19914;-82
2022/04/30 12:53:55;;;;;;;3.15;1.50;;;18.80;70.50;;;;;;4933009;29;22743;-81
2022/04/30 12:56:24;;;;;;;2.40;1.65;;;18.70;70.60;;;;;;4952194;28;20103;-82
2022/04/30 12:58:50;;;;;;;15.70;10.25;;;18.60;70.00;;;;;;4933840;28;20031;-84
2022/04/30 13:01:20;;;;;;;8.10;5.68;;;18.50;70.10;;;;;;4933590;28;20104;-83
2022/04/30 13:03:48;;;;;;;21.20;15.50;;;18.40;70.50;;;;;;4930190;28;21233;-82
2022/04/30 13:06:22;;;;;;;11.20;5.88;;;18.40;71.10;;;;;;4919647;29;20151;-84
2022/04/30 13:15:33;;;;;;;24.73;17.58;;;18.90;69.10;;;;;;4948965;28;20058;-82
2022/04/30 13:18:02;;;;;;;9.13;7.03;;;18.70;68.00;;;;;;4935025;29;20046;-80
2022/04/30 13:20:31;;;;;;;2.90;1.30;;;18.50;68.20;;;;;;4945997;28;20043;-84
2022/04/30 13:23:02;;;;;;;2.45;0.82;;;18.20;68.00;;;;;;4932238;29;20180;-84
2022/04/30 13:25:42;;;;;;;2.28;0.60;;;18.00;68.70;;;;;;4930498;28;20035;-84
2022/04/30 13:28:17;;;;;;;3.05;1.00;;;17.70;69.20;;;;;;4916780;28;20043;-84
2022/04/30 13:30:45;;;;;;;4.72;0.98;;;17.40;69.70;;;;;;4930797;28;20387;-84
2022/04/30 13:33:19;;;;;;;5.47;1.10;;;17.20;70.30;;;;;;4920640;28;20046;-84
2022/04/30 13:35:48;;;;;;;2.03;1.00;;;17.10;70.40;;;;;;4919125;28;20120;-86
2022/04/30 13:38:22;;;;;;;3.47;0.80;;;16.90;70.40;;;;;;4917800;28;20034;-85
2022/04/30 13:40:52;;;;;;;2.15;0.70;;;16.90;70.60;;;;;;4901826;28;20062;-84
2022/04/30 13:43:20;;;;;;;1.75;0.60;;;16.90;70.80;;;;;;4929299;28;21085;-85
2022/04/30 13:45:48;;;;;;;2.90;0.95;;;16.90;71.00;;;;;;4916134;29;20402;-79
2022/04/30 13:48:33;;;;;;;3.45;1.13;;;16.80;70.70;;;;;;4947792;28;20692;-79
2022/04/30 13:51:04;;;;;;;2.85;0.70;;;16.80;70.80;;;;;;4920717;28;20058;-79
2022/04/30 13:53:36;;;;;;;2.10;1.13;;;16.70;70.60;;;;;;4928064;28;20036;-79
2022/04/30 13:56:11;;;;;;;1.55;0.63;;;16.60;70.70;;;;;;4916117;28;20499;-79
2022/04/30 13:58:47;;;;;;;2.05;0.50;;;16.60;70.80;;;;;;4938502;28;20043;-78
2022/04/30 14:01:22;;;;;;;1.17;0.70;;;16.60;70.70;;;;;;4929749;28;20031;-78
2022/04/30 14:03:51;;;;;;;5.63;0.77;;;16.60;70.60;;;;;;4930591;28;20052;-78
2022/04/30 14:06:24;;;;;;;8.85;4.30;;;16.60;70.10;;;;;;4930898;28;20035;-79
2022/04/30 14:09:01;;;;;;;2.60;1.75;;;16.60;70.30;;;;;;4933274;28;20494;-79